KEN weather

Kenema Airport
Kenema, Eastern Province, Sierra Leone

Public forecast

Using degrees Celsius for public forecast. Weather courtesy of forecast.io.

METAR (pilot weather report)

Closest report is Roberts International Airport, 110.7 nm (205.0 km) SSE. Retrieved 2019/05/20 08:00 UTC (58 minutes ago):

GLRB 200800Z 35007KT 9999 FEW013 FEW024CB 26/24 Q1013 RMK CB-S/SW

TAF (pilot weather forecast)

Closest forecast is Roberts International Airport, 110.7 nm (205.0 km) SSE. Retrieved 2019/05/20 06:51 UTC (2 hours ago):

TAF TAF GLRB 200400Z 2006/2112 24010KT 9999 BKN020 BECMG 2007/2009 04003KT 9000 BKN013 FEW022CB TEMPO 2011/2015 23012KT 9999 TS SCT020 FEW027CB TEMPO 2016/2020 22010KT 8000 TSRA BKN012 FEW025CB